createdAt,value
2018-06-23T00:02:11.576Z,99325.54
2018-06-23T00:04:40.753Z,99329.11
2018-06-23T00:07:10.022Z,99327.22
2018-06-23T00:09:39.155Z,99322.97
2018-06-23T00:12:08.330Z,99328.59
2018-06-23T00:14:38.083Z,99328.11
2018-06-23T00:17:07.508Z,99317.89
2018-06-23T00:19:36.637Z,99324.06
2018-06-23T00:22:05.868Z,99320.34
2018-06-23T00:24:35.051Z,99321.68
2018-06-23T00:27:04.258Z,99318.00
2018-06-23T00:29:33.492Z,99308.04
2018-06-23T00:32:04.202Z,99316.63
2018-06-23T00:34:33.595Z,99321.97
2018-06-23T00:37:02.833Z,99311.53
2018-06-23T00:39:31.969Z,99310.53
2018-06-23T00:42:01.181Z,99310.91
2018-06-23T00:44:30.357Z,99306.03
2018-06-23T00:46:59.508Z,99311.39
2018-06-23T00:49:28.736Z,99303.39
2018-06-23T00:51:57.958Z,99305.47
2018-06-23T00:54:27.203Z,99308.08
2018-06-23T00:56:56.369Z,99301.77
2018-06-23T00:59:37.853Z,99299.34
2018-06-23T01:02:07.864Z,99298.67
2018-06-23T01:04:37.360Z,99305.66
2018-06-23T01:07:07.869Z,99303.50
2018-06-23T01:09:37.121Z,99306.70
2018-06-23T01:12:06.974Z,99301.09
2018-06-23T01:14:36.720Z,99298.85
2018-06-23T01:17:08.573Z,99298.19
2018-06-23T01:19:38.225Z,99297.92
2018-06-23T01:22:07.490Z,99294.66
2018-06-23T01:24:36.764Z,99302.42
2018-06-23T01:27:06.117Z,99304.53
2018-06-23T01:29:35.367Z,99297.73
2018-06-23T01:32:04.614Z,99299.36
2018-06-23T01:34:33.806Z,99296.44
2018-06-23T01:37:03.037Z,99292.20
2018-06-23T01:39:32.184Z,99288.74
2018-06-23T01:42:01.363Z,99294.66
2018-06-23T01:44:30.471Z,99296.51
2018-06-23T01:46:59.671Z,99291.90
2018-06-23T01:49:28.872Z,99285.98
2018-06-23T01:51:58.089Z,99280.55
2018-06-23T01:54:27.447Z,99281.85
2018-06-23T01:56:56.662Z,99283.15
2018-06-23T01:59:25.861Z,99286.00
2018-06-23T02:01:55.038Z,99287.78
2018-06-23T02:04:24.274Z,99280.75
2018-06-23T02:06:53.463Z,99279.11
2018-06-23T02:09:22.589Z,99279.63
2018-06-23T02:11:51.769Z,99275.31
2018-06-23T02:14:26.116Z,99274.45
2018-06-23T02:17:00.666Z,99276.53
2018-06-23T02:19:35.015Z,99274.19
2018-06-23T02:22:09.472Z,99273.12
2018-06-23T02:24:43.862Z,99269.41
2018-06-23T02:27:18.406Z,99277.52
2018-06-23T02:29:52.680Z,99276.47
2018-06-23T02:32:27.083Z,99271.30
2018-06-23T02:35:04.548Z,99267.30
2018-06-23T02:37:35.481Z,99264.63
2018-06-23T02:40:05.268Z,99266.05
2018-06-23T02:42:35.076Z,99256.61
2018-06-23T02:45:05.418Z,99256.99
2018-06-23T02:47:34.598Z,99249.36
2018-06-23T02:50:03.908Z,99252.80
2018-06-23T02:52:33.137Z,99252.77
2018-06-23T02:55:02.390Z,99259.19
2018-06-23T02:57:31.613Z,99261.00
2018-06-23T03:00:00.784Z,99257.59
2018-06-23T03:02:29.970Z,99258.92
2018-06-23T03:04:59.332Z,99255.39
2018-06-23T03:07:28.508Z,99254.91
2018-06-23T03:09:57.657Z,99254.80
2018-06-23T03:12:26.865Z,99255.66
2018-06-23T03:14:56.136Z,99254.05
2018-06-23T03:17:25.316Z,99259.66
2018-06-23T03:19:54.428Z,99262.94
2018-06-23T03:22:23.711Z,99254.66
2018-06-23T03:24:52.921Z,99258.16
2018-06-23T03:27:22.113Z,99246.98
2018-06-23T03:29:51.230Z,99243.62
2018-06-23T03:32:20.348Z,99246.22
2018-06-23T03:34:49.580Z,99251.56
2018-06-23T03:37:18.859Z,99248.98
2018-06-23T03:39:48.053Z,99251.42
2018-06-23T03:42:17.279Z,99244.97
2018-06-23T03:44:46.474Z,99247.98
2018-06-23T03:47:15.593Z,99245.65
2018-06-23T03:49:44.855Z,99241.81
2018-06-23T03:52:14.017Z,99247.24
2018-06-23T03:54:43.223Z,99240.56
2018-06-23T03:57:12.394Z,99244.47
2018-06-23T03:59:41.606Z,99247.63
2018-06-23T04:02:10.797Z,99243.91
2018-06-23T04:04:40.034Z,99239.72
2018-06-23T04:07:09.402Z,99248.45
2018-06-23T04:09:38.493Z,99246.31
2018-06-23T04:12:07.631Z,99241.14
2018-06-23T04:14:36.859Z,99244.30
2018-06-23T04:17:06.090Z,99240.58
2018-06-23T04:19:35.381Z,99249.16
2018-06-23T04:22:04.571Z,99251.69
2018-06-23T04:24:33.691Z,99240.34
2018-06-23T04:27:02.910Z,99250.68
2018-06-23T04:29:32.188Z,99245.33
2018-06-23T04:32:01.340Z,99247.82
2018-06-23T04:34:30.533Z,99250.50
2018-06-23T04:36:59.860Z,99251.41
2018-06-23T04:39:28.954Z,99258.08
2018-06-23T04:41:58.272Z,99262.84
2018-06-23T04:44:27.526Z,99268.48
2018-06-23T04:46:56.733Z,99273.98
2018-06-23T04:49:25.925Z,99278.03
2018-06-23T04:51:55.161Z,99277.80
2018-06-23T04:54:24.330Z,99275.68
2018-06-23T04:56:53.642Z,99281.41
2018-06-23T04:59:22.829Z,99277.52
2018-06-23T05:01:52.078Z,99285.88
2018-06-23T05:04:21.315Z,99277.91
2018-06-23T05:06:50.588Z,99273.46
2018-06-23T05:09:19.816Z,99267.23
2018-06-23T05:11:48.995Z,99272.83
2018-06-23T05:14:18.689Z,99277.56
2018-06-23T05:16:47.825Z,99277.13
2018-06-23T05:19:17.006Z,99282.24
2018-06-23T05:21:47.137Z,99287.14
2018-06-23T05:24:16.325Z,99287.00
2018-06-23T05:26:45.498Z,99283.64
2018-06-23T05:29:14.734Z,99291.58
2018-06-23T05:31:44.000Z,99283.67
2018-06-23T05:34:13.207Z,99280.91
2018-06-23T05:36:42.447Z,99278.52
2018-06-23T05:39:11.653Z,99276.80
2018-06-23T05:41:40.854Z,99274.83
2018-06-23T05:44:10.086Z,99268.33
2018-06-23T05:46:39.415Z,99270.61
2018-06-23T05:49:08.640Z,99273.09
2018-06-23T05:51:37.963Z,99273.53
2018-06-23T05:54:07.205Z,99270.61
2018-06-23T05:56:36.352Z,99269.60
2018-06-23T05:59:05.776Z,99263.98
2018-06-23T06:01:34.952Z,99274.27
2018-06-23T06:04:04.309Z,99275.38
2018-06-23T06:06:33.594Z,99279.33
2018-06-23T06:09:02.868Z,99276.38
2018-06-23T06:11:31.996Z,99269.47
2018-06-23T06:14:01.197Z,99268.42
2018-06-23T06:17:38.621Z,99262.58
2018-06-23T06:20:11.133Z,99263.42
2018-06-23T06:22:41.460Z,99262.95
2018-06-23T06:25:11.189Z,99264.87
2018-06-23T06:27:40.633Z,99264.87
2018-06-23T06:30:10.914Z,99267.02
2018-06-23T06:32:40.553Z,99264.05
2018-06-23T06:35:09.835Z,99256.74
2018-06-23T06:37:39.006Z,99261.85
2018-06-23T06:40:08.348Z,99248.14
2018-06-23T06:42:37.574Z,99252.77
2018-06-23T06:45:07.233Z,99247.94
2018-06-23T06:47:36.435Z,99238.86
2018-06-23T06:50:05.774Z,99237.23
2018-06-23T06:52:34.991Z,99239.16
2018-06-23T06:55:04.200Z,99233.77
2018-06-23T06:57:33.421Z,99233.24
2018-06-23T07:00:02.623Z,99231.08
2018-06-23T07:02:31.745Z,99230.27
2018-06-23T07:05:00.954Z,99228.16
2018-06-23T07:07:30.101Z,99232.47
2018-06-23T07:09:59.225Z,99222.24
2018-06-23T07:12:28.365Z,99223.34
2018-06-23T07:14:57.517Z,99223.31
2018-06-23T07:17:26.748Z,99220.34
2018-06-23T07:19:56.015Z,99225.45
2018-06-23T07:22:26.013Z,99223.31
2018-06-23T07:24:55.287Z,99223.25
2018-06-23T07:27:24.522Z,99220.81
2018-06-23T07:29:54.510Z,99221.31
2018-06-23T07:32:23.682Z,99224.03
2018-06-23T07:34:53.080Z,99217.56
2018-06-23T07:37:22.055Z,99222.38
2018-06-23T07:39:51.280Z,99221.28
2018-06-23T07:42:20.458Z,99217.50
2018-06-23T07:44:49.634Z,99216.39
2018-06-23T07:47:18.897Z,99222.07
2018-06-23T07:49:48.104Z,99222.06
2018-06-23T07:52:17.303Z,99226.10
2018-06-23T07:54:46.485Z,99232.02
2018-06-23T07:57:20.176Z,99221.28
2018-06-23T07:59:49.460Z,99223.10
2018-06-23T08:02:18.629Z,99216.13
2018-06-23T08:04:47.785Z,99208.50
2018-06-23T08:07:17.852Z,99212.53
2018-06-23T08:09:47.055Z,99214.84
2018-06-23T08:12:16.269Z,99210.28
2018-06-23T08:14:45.478Z,99211.73
2018-06-23T08:17:14.642Z,99197.19
2018-06-23T08:19:43.800Z,99198.88
2018-06-23T08:22:13.065Z,99187.72
2018-06-23T08:24:42.191Z,99196.44
2018-06-23T08:27:11.470Z,99189.78
2018-06-23T08:29:40.636Z,99190.34
2018-06-23T08:32:09.879Z,99177.25
2018-06-23T08:34:39.033Z,99176.96
2018-06-23T08:37:08.555Z,99182.02
2018-06-23T08:39:37.688Z,99177.49
2018-06-23T08:42:06.897Z,99193.70
2018-06-23T08:44:36.059Z,99193.63
2018-06-23T08:47:05.342Z,99198.03
2018-06-23T08:49:34.606Z,99198.06
2018-06-23T08:52:03.845Z,99197.84
2018-06-23T08:54:33.053Z,99199.70
2018-06-23T08:57:02.337Z,99202.98
2018-06-23T08:59:31.394Z,99208.08
2018-06-23T09:02:00.603Z,99195.94
2018-06-23T09:04:29.754Z,99193.21
2018-06-23T09:06:58.857Z,99189.95
2018-06-23T09:09:28.045Z,99194.29
2018-06-23T09:11:57.252Z,99182.61
2018-06-23T09:14:26.372Z,99184.70
2018-06-23T09:16:55.821Z,99187.91
2018-06-23T09:19:25.068Z,99190.05
2018-06-23T09:21:54.266Z,99175.76
2018-06-23T09:24:23.457Z,99185.19
2018-06-23T09:26:52.662Z,99189.17
2018-06-23T09:29:21.849Z,99179.11
2018-06-23T09:31:50.929Z,99178.10
2018-06-23T09:34:20.481Z,99182.25
2018-06-23T09:36:49.775Z,99176.57
2018-06-23T09:39:19.076Z,99172.45
2018-06-23T09:41:48.289Z,99178.67
2018-06-23T09:44:17.408Z,99177.97
2018-06-23T09:46:46.492Z,99170.57
2018-06-23T09:49:15.878Z,99172.30
2018-06-23T09:51:45.045Z,99158.39
2018-06-23T09:54:14.381Z,99138.23
2018-06-23T09:56:43.533Z,99170.30
2018-06-23T09:59:12.665Z,99171.27
2018-06-23T10:01:41.810Z,99173.42
2018-06-23T10:04:11.075Z,99161.63
2018-06-23T10:06:40.314Z,99168.88
2018-06-23T10:09:10.472Z,99158.81
2018-06-23T10:11:39.670Z,99158.33
2018-06-23T10:14:08.934Z,99164.90
2018-06-23T10:16:38.164Z,99169.77
2018-06-23T10:19:07.872Z,99166.94
2018-06-23T10:21:37.097Z,99161.27
2018-06-23T10:24:06.264Z,99172.30
2018-06-23T10:26:35.438Z,99163.11
2018-06-23T10:29:04.599Z,99163.90
2018-06-23T10:31:33.943Z,99165.03
2018-06-23T10:34:03.175Z,99164.80
2018-06-23T10:36:32.255Z,99162.52
2018-06-23T10:39:01.340Z,99164.31
2018-06-23T10:41:30.466Z,99166.98
2018-06-23T10:43:59.704Z,99162.78
2018-06-23T10:46:28.913Z,99163.50
2018-06-23T10:48:58.025Z,99155.13
2018-06-23T10:51:27.289Z,99155.47
2018-06-23T10:53:56.441Z,99151.15
2018-06-23T10:56:25.592Z,99151.11
2018-06-23T10:58:54.716Z,99159.23
2018-06-23T11:01:23.813Z,99158.05
2018-06-23T11:03:52.984Z,99150.88
2018-06-23T11:06:23.330Z,99146.55
2018-06-23T11:08:52.600Z,99144.82
2018-06-23T11:11:22.082Z,99140.53
2018-06-23T11:13:51.345Z,99143.75
2018-06-23T11:16:20.600Z,99148.39
2018-06-23T11:18:49.718Z,99151.73
2018-06-23T11:21:18.846Z,99145.31
2018-06-23T11:23:47.993Z,99145.20
2018-06-23T11:26:17.117Z,99139.37
2018-06-23T11:28:46.235Z,99138.75
2018-06-23T11:31:15.407Z,99130.57
2018-06-23T11:33:44.612Z,99130.86
2018-06-23T11:36:13.772Z,99126.35
2018-06-23T11:38:43.157Z,99131.94
2018-06-23T11:41:12.341Z,99135.20
2018-06-23T11:43:41.458Z,99128.69
2018-06-23T11:46:10.664Z,99131.05
2018-06-23T11:48:40.037Z,99124.72
2018-06-23T11:51:09.501Z,99115.84
2018-06-23T11:53:38.781Z,99116.31
2018-06-23T11:56:08.082Z,99107.53
2018-06-23T11:58:37.206Z,99104.73
2018-06-23T12:01:06.378Z,99106.69
2018-06-23T12:03:35.666Z,99097.95
2018-06-23T12:06:04.833Z,99104.58
2018-06-23T12:08:34.382Z,99109.03
2018-06-23T12:11:03.580Z,99114.82
2018-06-23T12:13:32.684Z,99110.45
2018-06-23T12:16:01.817Z,99108.98
2018-06-23T12:18:30.993Z,99107.31
2018-06-23T12:21:00.194Z,99115.19
2018-06-23T12:23:29.413Z,99102.33
2018-06-23T12:25:58.670Z,99097.38
2018-06-23T12:28:27.768Z,99088.88
2018-06-23T12:30:56.985Z,99094.27
2018-06-23T12:33:26.145Z,99090.95
2018-06-23T12:35:55.245Z,99087.42
2018-06-23T12:38:24.546Z,99088.50
2018-06-23T12:40:53.696Z,99075.47
2018-06-23T12:43:22.909Z,99076.53
2018-06-23T12:45:52.004Z,99076.92
2018-06-23T12:48:21.198Z,99073.19
2018-06-23T12:50:50.936Z,99061.80
2018-06-23T12:53:20.117Z,99068.09
2018-06-23T12:55:49.353Z,99069.09
2018-06-23T12:58:18.511Z,99071.91
2018-06-23T13:00:47.620Z,99065.23
2018-06-23T13:03:16.840Z,99067.04
2018-06-23T13:05:45.975Z,99069.11
2018-06-23T13:08:15.081Z,99071.42
2018-06-23T13:10:44.305Z,99066.22
2018-06-23T13:13:13.504Z,99061.08
2018-06-23T13:15:42.674Z,99065.95
2018-06-23T13:18:11.841Z,99061.18
2018-06-23T13:20:41.683Z,99059.44
2018-06-23T13:23:11.835Z,99050.70
2018-06-23T13:25:41.366Z,99044.93
2018-06-23T13:28:10.596Z,99047.22
2018-06-23T13:30:39.787Z,99051.54
2018-06-23T13:33:09.233Z,99032.61
2018-06-23T13:35:38.430Z,99044.09
2018-06-23T13:38:07.581Z,99034.60
2018-06-23T13:40:36.730Z,99044.16
2018-06-23T13:43:06.006Z,99027.92
2018-06-23T13:45:35.181Z,99022.38
2018-06-23T13:48:04.373Z,99024.41
2018-06-23T13:50:33.521Z,99035.73
2018-06-23T13:53:02.809Z,99030.17
2018-06-23T13:55:32.011Z,99037.80
2018-06-23T13:58:01.336Z,99038.29
2018-06-23T14:00:30.517Z,99034.08
2018-06-23T14:02:59.656Z,99026.38
2018-06-23T14:05:28.867Z,99031.47
2018-06-23T14:07:58.094Z,99030.11
2018-06-23T14:10:27.312Z,99031.20
2018-06-23T14:12:56.526Z,99023.56
2018-06-23T14:15:25.701Z,99023.93
2018-06-23T14:17:54.897Z,99015.53
2018-06-23T14:20:24.154Z,99019.38
2018-06-23T14:22:53.323Z,99020.19
2018-06-23T14:25:22.480Z,99030.26
2018-06-23T14:27:51.653Z,99020.36
2018-06-23T14:30:20.963Z,99027.41
2018-06-23T14:32:50.184Z,99022.47
2018-06-23T14:35:19.293Z,99012.78
2018-06-23T14:37:48.409Z,99015.91
2018-06-23T14:40:17.560Z,99012.67
2018-06-23T14:42:46.716Z,99013.80
2018-06-23T14:45:15.864Z,99013.30
2018-06-23T14:47:45.039Z,99013.20
2018-06-23T14:50:14.151Z,99016.02
2018-06-23T14:52:44.129Z,99014.73
2018-06-23T14:55:13.280Z,99021.88
2018-06-23T14:57:42.384Z,99024.09
2018-06-23T15:00:11.539Z,99027.99
2018-06-23T15:02:40.721Z,99028.16
2018-06-23T15:05:09.922Z,99027.84
2018-06-23T15:07:39.018Z,99031.53
2018-06-23T15:10:19.328Z,99029.19
2018-06-23T15:12:59.580Z,99027.13
2018-06-23T15:15:28.732Z,99030.48
2018-06-23T15:17:57.888Z,99021.81
2018-06-23T15:20:27.033Z,99027.73
2018-06-23T15:22:56.186Z,99022.52
2018-06-23T15:25:25.347Z,99018.09
2018-06-23T15:27:54.532Z,99017.16
2018-06-23T15:30:23.742Z,99019.54
2018-06-23T15:32:52.995Z,99022.16
2018-06-23T15:35:22.191Z,99017.00
2018-06-23T15:37:51.485Z,99020.13
2018-06-23T15:40:20.598Z,99025.14
2018-06-23T15:42:49.892Z,99021.31
2018-06-23T15:45:19.120Z,99018.92
2018-06-23T15:47:48.285Z,99022.17
2018-06-23T15:50:17.790Z,99025.73
2018-06-23T15:52:47.009Z,99023.23
2018-06-23T15:55:16.262Z,99021.92
2018-06-23T15:57:45.393Z,99023.67
2018-06-23T16:00:14.639Z,99026.33
2018-06-23T16:02:43.794Z,99020.38
2018-06-23T16:05:12.950Z,99022.27
2018-06-23T16:07:42.140Z,99027.42
2018-06-23T16:10:16.453Z,99021.59
2018-06-23T16:12:45.674Z,99023.00
2018-06-23T16:15:14.919Z,99015.74
2018-06-23T16:17:44.063Z,99017.27
2018-06-23T16:20:13.393Z,99021.02
2018-06-23T16:22:42.590Z,99023.31
2018-06-23T16:25:11.888Z,99024.08
2018-06-23T16:27:41.080Z,99022.05
2018-06-23T16:30:10.299Z,99016.82
2018-06-23T16:32:39.644Z,99018.57
2018-06-23T16:35:09.243Z,99013.11
2018-06-23T16:37:38.251Z,99016.45
2018-06-23T16:40:07.501Z,99020.45
2018-06-23T16:42:36.612Z,99009.63
2018-06-23T16:45:06.343Z,99014.53
2018-06-23T16:47:35.653Z,99018.20
2018-06-23T16:50:05.055Z,99013.64
2018-06-23T16:52:34.291Z,99006.39
2018-06-23T16:55:03.546Z,99008.12
2018-06-23T16:57:32.715Z,99012.75
2018-06-23T17:00:02.022Z,99008.97
2018-06-23T17:02:31.157Z,99012.59
2018-06-23T17:05:00.867Z,99010.39
2018-06-23T17:07:30.117Z,99006.75
2018-06-23T17:09:59.284Z,99013.60
2018-06-23T17:12:28.613Z,99010.36
2018-06-23T17:14:57.810Z,99009.66
2018-06-23T17:17:27.181Z,99019.52
2018-06-23T17:19:56.421Z,99014.21
2018-06-23T17:22:25.608Z,99019.67
2018-06-23T17:24:54.793Z,99016.91
2018-06-23T17:27:23.938Z,99020.22
2018-06-23T17:29:53.106Z,99018.66
2018-06-23T17:32:22.530Z,99020.02
2018-06-23T17:34:52.256Z,99023.02
2018-06-23T17:37:21.546Z,99009.84
2018-06-23T17:39:50.733Z,99025.41
2018-06-23T17:42:20.012Z,99019.17
2018-06-23T17:44:49.123Z,99014.88
2018-06-23T17:47:18.340Z,99017.88
2018-06-23T17:49:47.493Z,99019.80
2018-06-23T17:52:16.709Z,99020.07
2018-06-23T17:54:45.882Z,99018.13
2018-06-23T17:57:15.161Z,99018.39
2018-06-23T17:59:45.006Z,99025.72
2018-06-23T18:02:14.269Z,99020.64
2018-06-23T18:04:43.458Z,99024.66
2018-06-23T18:07:12.656Z,99018.78
2018-06-23T18:09:41.908Z,99022.05
2018-06-23T18:12:11.241Z,99018.90
2018-06-23T18:14:40.329Z,99017.02
2018-06-23T18:17:09.706Z,99020.88
2018-06-23T18:19:38.946Z,99022.28
2018-06-23T18:22:08.172Z,99023.63
2018-06-23T18:24:37.413Z,99022.09
2018-06-23T18:27:06.801Z,99028.81
2018-06-23T18:29:35.997Z,99026.92
2018-06-23T18:32:05.355Z,99026.67
2018-06-23T18:34:34.706Z,99021.57
2018-06-23T18:37:03.947Z,99024.05
2018-06-23T18:39:33.145Z,99030.60
2018-06-23T18:42:02.396Z,99028.52
2018-06-23T18:44:31.661Z,99031.80
2018-06-23T18:47:00.932Z,99031.84
2018-06-23T18:49:30.190Z,99032.95
2018-06-23T18:51:59.418Z,99035.47
2018-06-23T18:54:28.697Z,99032.23
2018-06-23T18:56:57.935Z,99033.08
2018-06-23T18:59:27.800Z,99036.82
2018-06-23T19:01:57.028Z,99034.70
2018-06-23T19:04:26.295Z,99039.31
2018-06-23T19:06:55.511Z,99043.67
2018-06-23T19:09:25.129Z,99047.75
2018-06-23T19:11:54.348Z,99051.00
2018-06-23T19:14:23.682Z,99046.95
2018-06-23T19:16:53.199Z,99055.35
2018-06-23T19:19:22.445Z,99050.79
2018-06-23T19:21:51.601Z,99063.74
2018-06-23T19:24:20.817Z,99063.50
2018-06-23T19:26:50.034Z,99064.31
2018-06-23T19:29:19.274Z,99062.69
2018-06-23T19:31:48.459Z,99066.73
2018-06-23T19:34:17.701Z,99078.09
2018-06-23T19:36:47.044Z,99073.78
2018-06-23T19:39:16.202Z,99080.53
2018-06-23T19:41:45.400Z,99083.50
2018-06-23T19:44:14.728Z,99093.21
2018-06-23T19:46:44.093Z,99100.73
2018-06-23T19:49:13.520Z,99097.81
2018-06-23T19:51:42.710Z,99100.23
2018-06-23T19:54:12.065Z,99104.80
2018-06-23T19:56:41.295Z,99102.11
2018-06-23T19:59:10.441Z,99106.70
2018-06-23T20:01:39.694Z,99108.05
2018-06-23T20:04:08.991Z,99108.34
2018-06-23T20:06:38.343Z,99106.19
2018-06-23T20:09:08.893Z,99115.34
2018-06-23T20:11:38.125Z,99116.69
2018-06-23T20:14:07.466Z,99115.63
2018-06-23T20:16:36.985Z,99116.42
2018-06-23T20:19:06.277Z,99124.76
2018-06-23T20:21:35.582Z,99123.42
2018-06-23T20:24:04.858Z,99126.94
2018-06-23T20:26:34.060Z,99122.34
2018-06-23T20:29:03.372Z,99126.38
2018-06-23T20:31:32.567Z,99128.02
2018-06-23T20:34:01.854Z,99131.24
2018-06-23T20:36:31.230Z,99137.16
2018-06-23T20:39:00.457Z,99139.61
2018-06-23T20:41:29.815Z,99134.22
2018-06-23T20:43:59.547Z,99139.86
2018-06-23T20:46:29.217Z,99137.40
2018-06-23T20:48:58.428Z,99138.21
2018-06-23T20:51:27.666Z,99139.59
2018-06-23T20:53:56.911Z,99143.34
2018-06-23T20:56:26.375Z,99134.71
2018-06-23T20:58:55.529Z,99134.47
2018-06-23T21:01:24.697Z,99135.00
2018-06-23T21:03:54.247Z,99130.95
2018-06-23T21:06:23.401Z,99130.15
2018-06-23T21:08:52.625Z,99131.22
2018-06-23T21:11:21.827Z,99128.53
2018-06-23T21:13:51.072Z,99125.31
2018-06-23T21:16:20.266Z,99122.08
2018-06-23T21:18:49.785Z,99114.00
2018-06-23T21:21:18.945Z,99114.30
2018-06-23T21:23:48.233Z,99107.29
2018-06-23T21:26:17.498Z,99109.70
2018-06-23T21:28:47.001Z,99115.36
2018-06-23T21:31:16.166Z,99112.67
2018-06-23T21:33:45.391Z,99112.92
2018-06-23T21:36:14.585Z,99111.86
2018-06-23T21:38:43.943Z,99111.58
2018-06-23T21:41:13.193Z,99108.63
2018-06-23T21:43:42.424Z,99115.08
2018-06-23T21:46:11.606Z,99116.42
2018-06-23T21:48:43.117Z,99116.42
2018-06-23T21:51:12.892Z,99116.67
2018-06-23T21:53:45.649Z,99116.14
2018-06-23T21:56:21.078Z,99117.48
2018-06-23T21:58:54.051Z,99120.70
2018-06-23T22:01:27.156Z,99119.61
2018-06-23T22:03:56.887Z,99113.94
2018-06-23T22:06:27.925Z,99113.94
2018-06-23T22:08:57.116Z,99116.63
2018-06-23T22:11:26.363Z,99110.72
2018-06-23T22:13:55.670Z,99111.25
2018-06-23T22:16:24.855Z,99109.36
2018-06-23T22:18:54.163Z,99106.67
2018-06-23T22:21:23.474Z,99102.36
2018-06-23T22:23:52.598Z,99107.49
2018-06-23T22:26:21.798Z,99106.93
2018-06-23T22:28:51.078Z,99103.41
2018-06-23T22:31:20.302Z,99106.09
2018-06-23T22:33:49.457Z,99106.04
2018-06-23T22:36:18.653Z,99101.70
2018-06-23T22:38:47.845Z,99105.16
2018-06-23T22:41:17.062Z,99105.67
2018-06-23T22:43:46.705Z,99109.16
2018-06-23T22:46:16.215Z,99118.02
2018-06-23T22:48:45.368Z,99110.19
2018-06-23T22:51:14.886Z,99117.72
2018-06-23T22:53:44.035Z,99113.97
2018-06-23T22:56:13.247Z,99115.83
2018-06-23T22:58:42.472Z,99117.41
2018-06-23T23:01:11.806Z,99114.48
2018-06-23T23:03:41.010Z,99120.36
2018-06-23T23:06:10.304Z,99114.72
2018-06-23T23:08:39.586Z,99114.94
2018-06-23T23:11:08.884Z,99118.19
2018-06-23T23:13:38.358Z,99116.02
2018-06-23T23:16:07.558Z,99106.60
2018-06-23T23:18:36.674Z,99107.68
2018-06-23T23:21:06.005Z,99105.72
2018-06-23T23:23:35.131Z,99108.67
2018-06-23T23:26:04.377Z,99102.45
2018-06-23T23:28:33.549Z,99104.59
2018-06-23T23:31:02.833Z,99099.16
2018-06-23T23:33:31.987Z,99098.62
2018-06-23T23:36:01.149Z,99093.25
2018-06-23T23:38:30.291Z,99097.88
2018-06-23T23:40:59.465Z,99099.17
2018-06-23T23:43:28.627Z,99091.91
2018-06-23T23:45:57.771Z,99100.25
2018-06-23T23:48:26.977Z,99097.03
2018-06-23T23:50:56.159Z,99095.20
2018-06-23T23:53:25.511Z,99105.33
2018-06-23T23:55:54.714Z,99103.45
2018-06-23T23:58:23.910Z,99099.42
